sensor_id;sensor_type;location;lat;lon;timestamp;temperature;humidity
28863;DHT22;15994;51.796;13.006;2023-05-01T00:00:21;6.00;99.90
28863;DHT22;15994;51.796;13.006;2023-05-01T00:02:48;5.90;99.90
28863;DHT22;15994;51.796;13.006;2023-05-01T00:05:14;5.90;99.90
28863;DHT22;15994;51.796;13.006;2023-05-01T00:07:41;5.80;99.90
28863;DHT22;15994;51.796;13.006;2023-05-01T00:10:07;5.90;99.90
28863;DHT22;15994;51.796;13.006;2023-05-01T00:12:34;5.80;99.90
28863;DHT22;15994;51.796;13.006;2023-05-01T00:15:00;5.80;99.90
28863;DHT22;15994;51.796;13.006;2023-05-01T00:17:27;5.80;99.90
28863;DHT22;15994;51.796;13.006;2023-05-01T00:19:55;5.70;99.90
28863;DHT22;15994;51.796;13.006;2023-05-01T00:22:21;5.80;99.90
28863;DHT22;15994;51.796;13.006;2023-05-01T00:24:48;5.70;99.90
28863;DHT22;15994;51.796;13.006;2023-05-01T00:27:15;5.60;99.90
28863;DHT22;15994;51.796;13.006;2023-05-01T00:29:41;5.60;99.90
28863;DHT22;15994;51.796;13.006;2023-05-01T00:32:08;5.60;99.90
28863;DHT22;15994;51.796;13.006;2023-05-01T00:34:34;5.40;99.90
28863;DHT22;15994;51.796;13.006;2023-05-01T00:37:01;5.40;99.90
28863;DHT22;15994;51.796;13.006;2023-05-01T00:39:27;5.30;99.90
28863;DHT22;15994;51.796;13.006;2023-05-01T00:41:54;5.40;99.90
28863;DHT22;15994;51.796;13.006;2023-05-01T00:44:20;5.30;99.90
28863;DHT22;15994;51.796;13.006;2023-05-01T00:46:47;5.30;99.90
28863;DHT22;15994;51.796;13.006;2023-05-01T00:49:14;5.20;99.90
28863;DHT22;15994;51.796;13.006;2023-05-01T00:51:41;5.20;99.90
28863;DHT22;15994;51.796;13.006;2023-05-01T00:54:09;5.20;99.90
28863;DHT22;15994;51.796;13.006;2023-05-01T00:56:36;5.20;99.90
28863;DHT22;15994;51.796;13.006;2023-05-01T00:59:02;5.20;99.90
28863;DHT22;15994;51.796;13.006;2023-05-01T01:01:29;5.30;99.90
28863;DHT22;15994;51.796;13.006;2023-05-01T01:03:56;5.30;99.90
28863;DHT22;15994;51.796;13.006;2023-05-01T01:06:48;5.30;99.90
28863;DHT22;15994;51.796;13.006;2023-05-01T01:09:36;5.30;99.90
28863;DHT22;15994;51.796;13.006;2023-05-01T01:12:23;5.20;99.90
28863;DHT22;15994;51.796;13.006;2023-05-01T01:17:52;5.20;99.90
28863;DHT22;15994;51.796;13.006;2023-05-01T01:20:30;5.20;99.90
28863;DHT22;15994;51.796;13.006;2023-05-01T01:23:31;5.10;99.90
28863;DHT22;15994;51.796;13.006;2023-05-01T01:34:54;4.90;99.90
28863;DHT22;15994;51.796;13.006;2023-05-01T01:37:28;4.90;99.90
28863;DHT22;15994;51.796;13.006;2023-05-01T01:40:05;4.80;99.90
28863;DHT22;15994;51.796;13.006;2023-05-01T01:42:46;4.70;99.90
28863;DHT22;15994;51.796;13.006;2023-05-01T01:45:29;4.60;99.90
28863;DHT22;15994;51.796;13.006;2023-05-01T01:47:56;4.50;99.90
28863;DHT22;15994;51.796;13.006;2023-05-01T01:50:25;4.40;99.90
28863;DHT22;15994;51.796;13.006;2023-05-01T01:52:53;4.30;99.90
28863;DHT22;15994;51.796;13.006;2023-05-01T01:55:22;4.30;99.90
28863;DHT22;15994;51.796;13.006;2023-05-01T01:57:52;4.30;99.90
28863;DHT22;15994;51.796;13.006;2023-05-01T02:00:19;4.20;99.90
28863;DHT22;15994;51.796;13.006;2023-05-01T02:02:47;4.20;99.90
28863;DHT22;15994;51.796;13.006;2023-05-01T02:05:16;4.10;99.90
28863;DHT22;15994;51.796;13.006;2023-05-01T02:07:46;4.10;99.90
28863;DHT22;15994;51.796;13.006;2023-05-01T02:10:14;4.00;99.90
28863;DHT22;15994;51.796;13.006;2023-05-01T02:12:45;4.00;99.90
28863;DHT22;15994;51.796;13.006;2023-05-01T02:15:12;4.00;99.90
28863;DHT22;15994;51.796;13.006;2023-05-01T02:17:40;4.00;99.90
28863;DHT22;15994;51.796;13.006;2023-05-01T02:20:09;4.00;99.90
28863;DHT22;15994;51.796;13.006;2023-05-01T02:22:38;3.90;99.90
28863;DHT22;15994;51.796;13.006;2023-05-01T02:25:08;3.80;99.90
28863;DHT22;15994;51.796;13.006;2023-05-01T02:27:39;3.80;99.90
28863;DHT22;15994;51.796;13.006;2023-05-01T02:30:09;3.80;99.90
28863;DHT22;15994;51.796;13.006;2023-05-01T02:32:36;3.70;99.90
28863;DHT22;15994;51.796;13.006;2023-05-01T02:35:03;3.70;99.90
28863;DHT22;15994;51.796;13.006;2023-05-01T02:37:30;3.70;99.90
28863;DHT22;15994;51.796;13.006;2023-05-01T02:39:57;3.70;99.90
28863;DHT22;15994;51.796;13.006;2023-05-01T02:42:25;3.70;99.90
28863;DHT22;15994;51.796;13.006;2023-05-01T02:45:04;3.70;99.90
28863;DHT22;15994;51.796;13.006;2023-05-01T02:47:35;3.60;99.90
28863;DHT22;15994;51.796;13.006;2023-05-01T02:50:03;3.70;99.90
28863;DHT22;15994;51.796;13.006;2023-05-01T02:52:31;3.70;99.90
28863;DHT22;15994;51.796;13.006;2023-05-01T02:54:58;3.70;99.90
28863;DHT22;15994;51.796;13.006;2023-05-01T02:57:24;3.70;99.90
28863;DHT22;15994;51.796;13.006;2023-05-01T02:59:51;3.70;99.90
28863;DHT22;15994;51.796;13.006;2023-05-01T03:02:18;3.70;99.90
28863;DHT22;15994;51.796;13.006;2023-05-01T03:04:44;3.70;99.90
28863;DHT22;15994;51.796;13.006;2023-05-01T03:07:11;3.70;99.90
28863;DHT22;15994;51.796;13.006;2023-05-01T03:09:38;3.70;99.90
28863;DHT22;15994;51.796;13.006;2023-05-01T03:12:04;3.70;99.90
28863;DHT22;15994;51.796;13.006;2023-05-01T03:14:31;3.70;99.90
28863;DHT22;15994;51.796;13.006;2023-05-01T03:16:58;3.60;99.90
28863;DHT22;15994;51.796;13.006;2023-05-01T03:19:24;3.60;99.90
28863;DHT22;15994;51.796;13.006;2023-05-01T03:21:51;3.60;99.90
28863;DHT22;15994;51.796;13.006;2023-05-01T03:24:17;3.60;99.90
28863;DHT22;15994;51.796;13.006;2023-05-01T03:26:44;3.60;99.90
28863;DHT22;15994;51.796;13.006;2023-05-01T03:29:10;3.50;99.90
28863;DHT22;15994;51.796;13.006;2023-05-01T03:31:38;3.50;99.90
28863;DHT22;15994;51.796;13.006;2023-05-01T03:34:04;3.50;99.90
28863;DHT22;15994;51.796;13.006;2023-05-01T03:36:31;3.50;99.90
28863;DHT22;15994;51.796;13.006;2023-05-01T03:38:58;3.40;99.90
28863;DHT22;15994;51.796;13.006;2023-05-01T03:41:25;3.40;99.90
28863;DHT22;15994;51.796;13.006;2023-05-01T03:43:51;3.40;99.90
28863;DHT22;15994;51.796;13.006;2023-05-01T03:46:18;3.40;99.90
28863;DHT22;15994;51.796;13.006;2023-05-01T03:48:44;3.40;99.90
28863;DHT22;15994;51.796;13.006;2023-05-01T03:51:11;3.40;99.90
28863;DHT22;15994;51.796;13.006;2023-05-01T03:53:37;3.40;99.90
28863;DHT22;15994;51.796;13.006;2023-05-01T03:56:05;3.40;99.90
28863;DHT22;15994;51.796;13.006;2023-05-01T03:58:31;3.50;99.90
28863;DHT22;15994;51.796;13.006;2023-05-01T04:00:58;3.50;99.90
28863;DHT22;15994;51.796;13.006;2023-05-01T04:03:25;3.50;99.90
28863;DHT22;15994;51.796;13.006;2023-05-01T04:05:52;3.60;99.90
28863;DHT22;15994;51.796;13.006;2023-05-01T04:08:19;3.60;99.90
28863;DHT22;15994;51.796;13.006;2023-05-01T04:10:46;3.60;99.90
28863;DHT22;15994;51.796;13.006;2023-05-01T04:13:12;3.70;99.90
28863;DHT22;15994;51.796;13.006;2023-05-01T04:15:43;3.80;99.90
28863;DHT22;15994;51.796;13.006;2023-05-01T04:18:10;3.80;99.90
28863;DHT22;15994;51.796;13.006;2023-05-01T04:20:37;3.80;99.90
28863;DHT22;15994;51.796;13.006;2023-05-01T04:23:04;3.80;99.90
28863;DHT22;15994;51.796;13.006;2023-05-01T04:25:31;3.90;99.90
28863;DHT22;15994;51.796;13.006;2023-05-01T04:27:57;3.90;99.90
28863;DHT22;15994;51.796;13.006;2023-05-01T04:30:24;4.00;99.90
28863;DHT22;15994;51.796;13.006;2023-05-01T04:32:50;4.10;99.90
28863;DHT22;15994;51.796;13.006;2023-05-01T04:35:17;4.10;99.90
28863;DHT22;15994;51.796;13.006;2023-05-01T04:37:43;4.20;99.90
28863;DHT22;15994;51.796;13.006;2023-05-01T04:40:10;4.30;99.90
28863;DHT22;15994;51.796;13.006;2023-05-01T04:42:37;4.30;99.90
28863;DHT22;15994;51.796;13.006;2023-05-01T04:45:04;4.30;99.90
28863;DHT22;15994;51.796;13.006;2023-05-01T04:47:31;4.40;99.90
28863;DHT22;15994;51.796;13.006;2023-05-01T04:49:57;4.50;99.90
28863;DHT22;15994;51.796;13.006;2023-05-01T04:52:24;4.60;99.90
28863;DHT22;15994;51.796;13.006;2023-05-01T04:54:50;4.60;99.90
28863;DHT22;15994;51.796;13.006;2023-05-01T04:57:17;4.70;99.90
28863;DHT22;15994;51.796;13.006;2023-05-01T04:59:43;4.80;99.90
28863;DHT22;15994;51.796;13.006;2023-05-01T05:02:10;4.90;99.90
28863;DHT22;15994;51.796;13.006;2023-05-01T05:04:36;4.90;99.90
28863;DHT22;15994;51.796;13.006;2023-05-01T05:07:03;5.00;99.90
28863;DHT22;15994;51.796;13.006;2023-05-01T05:09:29;5.10;99.90
28863;DHT22;15994;51.796;13.006;2023-05-01T05:11:56;5.10;99.90
28863;DHT22;15994;51.796;13.006;2023-05-01T05:14:22;5.30;99.90
28863;DHT22;15994;51.796;13.006;2023-05-01T05:16:49;5.30;99.90
28863;DHT22;15994;51.796;13.006;2023-05-01T05:19:15;5.40;99.90
28863;DHT22;15994;51.796;13.006;2023-05-01T05:21:42;5.50;99.90
28863;DHT22;15994;51.796;13.006;2023-05-01T05:24:08;5.60;99.90
28863;DHT22;15994;51.796;13.006;2023-05-01T05:26:35;5.70;99.90
28863;DHT22;15994;51.796;13.006;2023-05-01T05:29:02;5.80;99.90
28863;DHT22;15994;51.796;13.006;2023-05-01T05:31:29;6.00;99.90
28863;DHT22;15994;51.796;13.006;2023-05-01T05:33:56;6.10;99.90
28863;DHT22;15994;51.796;13.006;2023-05-01T05:36:23;6.20;99.90
28863;DHT22;15994;51.796;13.006;2023-05-01T05:38:51;6.40;99.90
28863;DHT22;15994;51.796;13.006;2023-05-01T05:41:18;6.50;99.90
28863;DHT22;15994;51.796;13.006;2023-05-01T05:43:44;6.60;99.90
28863;DHT22;15994;51.796;13.006;2023-05-01T05:46:11;6.70;99.90
28863;DHT22;15994;51.796;13.006;2023-05-01T05:48:38;6.80;99.90
28863;DHT22;15994;51.796;13.006;2023-05-01T05:51:04;6.90;99.90
28863;DHT22;15994;51.796;13.006;2023-05-01T05:53:31;7.00;99.90
28863;DHT22;15994;51.796;13.006;2023-05-01T05:55:57;7.00;99.90
28863;DHT22;15994;51.796;13.006;2023-05-01T05:58:25;7.10;99.90
28863;DHT22;15994;51.796;13.006;2023-05-01T06:00:51;7.10;99.90
28863;DHT22;15994;51.796;13.006;2023-05-01T06:03:20;7.30;99.90
28863;DHT22;15994;51.796;13.006;2023-05-01T06:05:47;7.40;99.90
28863;DHT22;15994;51.796;13.006;2023-05-01T06:08:14;7.60;99.90
28863;DHT22;15994;51.796;13.006;2023-05-01T06:10:42;7.80;99.90
28863;DHT22;15994;51.796;13.006;2023-05-01T06:13:09;8.00;99.90
28863;DHT22;15994;51.796;13.006;2023-05-01T06:15:36;8.10;99.90
28863;DHT22;15994;51.796;13.006;2023-05-01T06:18:04;8.30;99.90
28863;DHT22;15994;51.796;13.006;2023-05-01T06:20:30;8.40;99.90
28863;DHT22;15994;51.796;13.006;2023-05-01T06:22:57;8.50;99.90
28863;DHT22;15994;51.796;13.006;2023-05-01T06:25:24;8.60;99.90
28863;DHT22;15994;51.796;13.006;2023-05-01T06:27:50;8.70;99.90
28863;DHT22;15994;51.796;13.006;2023-05-01T06:30:17;8.70;99.90
28863;DHT22;15994;51.796;13.006;2023-05-01T06:32:47;8.70;99.90
28863;DHT22;15994;51.796;13.006;2023-05-01T06:35:14;8.70;99.90
28863;DHT22;15994;51.796;13.006;2023-05-01T06:37:41;8.80;99.90
28863;DHT22;15994;51.796;13.006;2023-05-01T06:40:08;8.80;99.90
28863;DHT22;15994;51.796;13.006;2023-05-01T06:42:36;9.00;99.90
28863;DHT22;15994;51.796;13.006;2023-05-01T06:45:03;9.10;99.90
28863;DHT22;15994;51.796;13.006;2023-05-01T06:47:29;9.20;99.90
28863;DHT22;15994;51.796;13.006;2023-05-01T06:49:56;9.40;99.90
28863;DHT22;15994;51.796;13.006;2023-05-01T06:52:23;9.50;99.90
28863;DHT22;15994;51.796;13.006;2023-05-01T06:54:50;9.60;99.90
28863;DHT22;15994;51.796;13.006;2023-05-01T06:57:16;9.70;99.90
28863;DHT22;15994;51.796;13.006;2023-05-01T06:59:43;9.80;99.90
28863;DHT22;15994;51.796;13.006;2023-05-01T07:02:10;9.90;99.90
28863;DHT22;15994;51.796;13.006;2023-05-01T07:04:36;10.10;99.90
28863;DHT22;15994;51.796;13.006;2023-05-01T07:07:03;10.20;99.90
28863;DHT22;15994;51.796;13.006;2023-05-01T07:09:29;10.20;99.90
28863;DHT22;15994;51.796;13.006;2023-05-01T07:11:57;10.40;99.90
28863;DHT22;15994;51.796;13.006;2023-05-01T07:14:23;10.40;99.90
28863;DHT22;15994;51.796;13.006;2023-05-01T07:16:50;10.50;99.90
28863;DHT22;15994;51.796;13.006;2023-05-01T07:19:17;10.70;99.90
28863;DHT22;15994;51.796;13.006;2023-05-01T07:21:43;10.80;99.90
28863;DHT22;15994;51.796;13.006;2023-05-01T07:24:10;10.90;99.90
28863;DHT22;15994;51.796;13.006;2023-05-01T07:26:36;11.00;99.90
28863;DHT22;15994;51.796;13.006;2023-05-01T07:29:03;11.10;99.90
28863;DHT22;15994;51.796;13.006;2023-05-01T07:31:30;11.30;99.90
28863;DHT22;15994;51.796;13.006;2023-05-01T07:33:56;11.40;99.90
28863;DHT22;15994;51.796;13.006;2023-05-01T07:36:23;11.50;99.90
28863;DHT22;15994;51.796;13.006;2023-05-01T07:38:49;11.60;99.90
28863;DHT22;15994;51.796;13.006;2023-05-01T07:41:16;11.60;99.90
28863;DHT22;15994;51.796;13.006;2023-05-01T07:43:42;11.60;99.90
28863;DHT22;15994;51.796;13.006;2023-05-01T07:46:09;11.70;99.90
28863;DHT22;15994;51.796;13.006;2023-05-01T07:48:36;11.80;99.90
28863;DHT22;15994;51.796;13.006;2023-05-01T07:51:02;11.90;99.90
28863;DHT22;15994;51.796;13.006;2023-05-01T07:53:29;11.90;99.90
28863;DHT22;15994;51.796;13.006;2023-05-01T07:56:09;12.00;99.90
28863;DHT22;15994;51.796;13.006;2023-05-01T07:58:37;12.20;99.90
28863;DHT22;15994;51.796;13.006;2023-05-01T08:01:05;12.20;99.90
28863;DHT22;15994;51.796;13.006;2023-05-01T08:03:31;12.30;99.90
28863;DHT22;15994;51.796;13.006;2023-05-01T08:05:58;12.50;99.90
28863;DHT22;15994;51.796;13.006;2023-05-01T08:08:24;12.50;99.90
28863;DHT22;15994;51.796;13.006;2023-05-01T08:10:51;12.60;99.90
28863;DHT22;15994;51.796;13.006;2023-05-01T08:13:18;12.60;99.90
28863;DHT22;15994;51.796;13.006;2023-05-01T08:15:45;12.70;99.90
28863;DHT22;15994;51.796;13.006;2023-05-01T08:18:13;12.80;99.90
28863;DHT22;15994;51.796;13.006;2023-05-01T08:20:45;13.00;99.90
28863;DHT22;15994;51.796;13.006;2023-05-01T08:23:14;13.00;99.90
28863;DHT22;15994;51.796;13.006;2023-05-01T08:25:40;13.00;99.80
28863;DHT22;15994;51.796;13.006;2023-05-01T08:28:07;13.20;99.90
28863;DHT22;15994;51.796;13.006;2023-05-01T08:30:33;13.40;99.90
28863;DHT22;15994;51.796;13.006;2023-05-01T08:33:00;13.60;99.90
28863;DHT22;15994;51.796;13.006;2023-05-01T08:35:27;13.70;99.90
28863;DHT22;15994;51.796;13.006;2023-05-01T08:40:22;14.30;99.90
28863;DHT22;15994;51.796;13.006;2023-05-01T08:42:49;14.30;99.90
28863;DHT22;15994;51.796;13.006;2023-05-01T08:45:17;14.10;98.70
28863;DHT22;15994;51.796;13.006;2023-05-01T08:47:46;14.10;99.50
28863;DHT22;15994;51.796;13.006;2023-05-01T08:50:15;14.10;99.40
28863;DHT22;15994;51.796;13.006;2023-05-01T08:52:43;14.20;99.90
28863;DHT22;15994;51.796;13.006;2023-05-01T08:55:12;14.40;99.50
28863;DHT22;15994;51.796;13.006;2023-05-01T08:57:46;14.60;98.50
28863;DHT22;15994;51.796;13.006;2023-05-01T09:00:18;14.70;99.30
28863;DHT22;15994;51.796;13.006;2023-05-01T09:02:46;14.80;99.20
28863;DHT22;15994;51.796;13.006;2023-05-01T09:05:15;14.90;98.80
28863;DHT22;15994;51.796;13.006;2023-05-01T09:07:43;15.10;98.80
28863;DHT22;15994;51.796;13.006;2023-05-01T09:10:11;15.20;98.60
28863;DHT22;15994;51.796;13.006;2023-05-01T09:12:39;15.30;98.30
28863;DHT22;15994;51.796;13.006;2023-05-01T09:15:09;15.40;98.30
28863;DHT22;15994;51.796;13.006;2023-05-01T09:17:36;15.50;98.20
28863;DHT22;15994;51.796;13.006;2023-05-01T09:20:04;15.60;98.20
28863;DHT22;15994;51.796;13.006;2023-05-01T09:22:32;15.70;98.40
28863;DHT22;15994;51.796;13.006;2023-05-01T09:25:00;15.70;97.70
28863;DHT22;15994;51.796;13.006;2023-05-01T09:27:32;15.70;97.90
28863;DHT22;15994;51.796;13.006;2023-05-01T09:29:59;15.80;97.50
28863;DHT22;15994;51.796;13.006;2023-05-01T09:32:26;15.90;98.10
28863;DHT22;15994;51.796;13.006;2023-05-01T09:34:54;15.90;97.60
28863;DHT22;15994;51.796;13.006;2023-05-01T09:37:26;15.90;97.60
28863;DHT22;15994;51.796;13.006;2023-05-01T09:40:09;16.00;98.00
28863;DHT22;15994;51.796;13.006;2023-05-01T09:42:38;16.00;97.60
28863;DHT22;15994;51.796;13.006;2023-05-01T09:45:12;16.10;98.40
28863;DHT22;15994;51.796;13.006;2023-05-01T09:47:40;16.30;97.60
28863;DHT22;15994;51.796;13.006;2023-05-01T09:50:08;16.30;97.30
28863;DHT22;15994;51.796;13.006;2023-05-01T09:52:35;16.40;98.10
28863;DHT22;15994;51.796;13.006;2023-05-01T09:55:15;16.50;97.50
28863;DHT22;15994;51.796;13.006;2023-05-01T09:57:45;16.60;98.60
28863;DHT22;15994;51.796;13.006;2023-05-01T10:00:13;16.90;97.10
28863;DHT22;15994;51.796;13.006;2023-05-01T10:02:43;17.00;97.00
28863;DHT22;15994;51.796;13.006;2023-05-01T10:05:11;17.10;96.50
28863;DHT22;15994;51.796;13.006;2023-05-01T10:07:38;17.10;95.80
28863;DHT22;15994;51.796;13.006;2023-05-01T10:10:18;17.20;97.80
28863;DHT22;15994;51.796;13.006;2023-05-01T10:12:45;17.20;96.90
28863;DHT22;15994;51.796;13.006;2023-05-01T10:15:12;17.20;95.70
28863;DHT22;15994;51.796;13.006;2023-05-01T10:17:41;17.30;96.60
28863;DHT22;15994;51.796;13.006;2023-05-01T10:20:11;17.50;96.90
28863;DHT22;15994;51.796;13.006;2023-05-01T10:22:39;17.50;96.00
28863;DHT22;15994;51.796;13.006;2023-05-01T10:25:09;17.70;94.90
28863;DHT22;15994;51.796;13.006;2023-05-01T10:27:38;17.70;94.10
28863;DHT22;15994;51.796;13.006;2023-05-01T10:30:06;17.70;95.10
28863;DHT22;15994;51.796;13.006;2023-05-01T10:32:34;17.80;97.40
28863;DHT22;15994;51.796;13.006;2023-05-01T10:35:06;17.80;98.90
28863;DHT22;15994;51.796;13.006;2023-05-01T10:37:40;18.00;99.60
28863;DHT22;15994;51.796;13.006;2023-05-01T10:43:19;18.20;96.90
28863;DHT22;15994;51.796;13.006;2023-05-01T10:45:50;18.20;96.60
28863;DHT22;15994;51.796;13.006;2023-05-01T10:53:38;18.40;97.60
28863;DHT22;15994;51.796;13.006;2023-05-01T10:56:05;18.50;97.60
28863;DHT22;15994;51.796;13.006;2023-05-01T11:01:33;18.70;92.80
28863;DHT22;15994;51.796;13.006;2023-05-01T11:04:06;18.80;93.40
28863;DHT22;15994;51.796;13.006;2023-05-01T11:06:34;18.90;92.30
28863;DHT22;15994;51.796;13.006;2023-05-01T11:09:01;19.10;92.10
28863;DHT22;15994;51.796;13.006;2023-05-01T11:11:48;19.10;91.50
28863;DHT22;15994;51.796;13.006;2023-05-01T11:14:14;19.20;91.90
28863;DHT22;15994;51.796;13.006;2023-05-01T11:16:44;19.20;90.50
28863;DHT22;15994;51.796;13.006;2023-05-01T11:21:48;19.40;90.80
28863;DHT22;15994;51.796;13.006;2023-05-01T11:24:16;19.40;90.90
28863;DHT22;15994;51.796;13.006;2023-05-01T11:26:44;19.40;90.50
28863;DHT22;15994;51.796;13.006;2023-05-01T11:29:11;19.50;90.40
28863;DHT22;15994;51.796;13.006;2023-05-01T11:31:38;19.60;89.10
28863;DHT22;15994;51.796;13.006;2023-05-01T11:34:05;19.70;90.90
28863;DHT22;15994;51.796;13.006;2023-05-01T11:36:48;19.70;90.10
28863;DHT22;15994;51.796;13.006;2023-05-01T11:39:16;19.70;87.10
28863;DHT22;15994;51.796;13.006;2023-05-01T11:41:43;19.60;89.70
28863;DHT22;15994;51.796;13.006;2023-05-01T11:44:15;19.80;90.80
28863;DHT22;15994;51.796;13.006;2023-05-01T11:46:42;19.90;86.80
28863;DHT22;15994;51.796;13.006;2023-05-01T11:49:10;20.00;93.90
28863;DHT22;15994;51.796;13.006;2023-05-01T11:51:36;20.00;94.80
28863;DHT22;15994;51.796;13.006;2023-05-01T11:56:32;20.20;95.40
28863;DHT22;15994;51.796;13.006;2023-05-01T11:59:14;20.30;96.70
28863;DHT22;15994;51.796;13.006;2023-05-01T12:01:46;20.40;94.60
28863;DHT22;15994;51.796;13.006;2023-05-01T12:04:22;19.90;93.10
28863;DHT22;15994;51.796;13.006;2023-05-01T12:06:49;20.10;93.70
28863;DHT22;15994;51.796;13.006;2023-05-01T12:09:16;20.20;93.80
28863;DHT22;15994;51.796;13.006;2023-05-01T12:11:45;20.20;91.60
28863;DHT22;15994;51.796;13.006;2023-05-01T12:14:16;20.30;92.80
28863;DHT22;15994;51.796;13.006;2023-05-01T12:16:43;20.40;91.80
28863;DHT22;15994;51.796;13.006;2023-05-01T12:19:13;20.40;90.60
28863;DHT22;15994;51.796;13.006;2023-05-01T12:21:40;20.60;91.50
28863;DHT22;15994;51.796;13.006;2023-05-01T12:24:15;20.70;92.20
28863;DHT22;15994;51.796;13.006;2023-05-01T12:26:43;20.70;91.30
28863;DHT22;15994;51.796;13.006;2023-05-01T12:29:10;20.60;91.40
28863;DHT22;15994;51.796;13.006;2023-05-01T12:31:45;20.50;89.30
28863;DHT22;15994;51.796;13.006;2023-05-01T12:34:11;20.40;90.90
28863;DHT22;15994;51.796;13.006;2023-05-01T12:36:38;20.50;91.80
28863;DHT22;15994;51.796;13.006;2023-05-01T12:39:05;20.40;90.90
28863;DHT22;15994;51.796;13.006;2023-05-01T12:41:45;20.40;90.40
28863;DHT22;15994;51.796;13.006;2023-05-01T12:44:25;20.30;91.00
28863;DHT22;15994;51.796;13.006;2023-05-01T12:47:04;20.20;88.90
28863;DHT22;15994;51.796;13.006;2023-05-01T12:49:33;20.20;90.50
28863;DHT22;15994;51.796;13.006;2023-05-01T12:52:02;20.20;90.80
28863;DHT22;15994;51.796;13.006;2023-05-01T12:57:24;20.40;91.20
28863;DHT22;15994;51.796;13.006;2023-05-01T13:00:02;20.30;91.00
28863;DHT22;15994;51.796;13.006;2023-05-01T13:02:32;20.30;91.70
28863;DHT22;15994;51.796;13.006;2023-05-01T13:05:09;20.20;88.50
28863;DHT22;15994;51.796;13.006;2023-05-01T13:07:36;20.20;91.40
28863;DHT22;15994;51.796;13.006;2023-05-01T13:10:04;20.10;90.50
28863;DHT22;15994;51.796;13.006;2023-05-01T13:12:32;20.00;90.40
28863;DHT22;15994;51.796;13.006;2023-05-01T13:14:58;19.90;87.60
28863;DHT22;15994;51.796;13.006;2023-05-01T13:17:30;19.80;86.80
28863;DHT22;15994;51.796;13.006;2023-05-01T13:19:58;19.80;87.80
28863;DHT22;15994;51.796;13.006;2023-05-01T13:22:36;19.50;86.10
28863;DHT22;15994;51.796;13.006;2023-05-01T13:25:14;19.50;90.30
28863;DHT22;15994;51.796;13.006;2023-05-01T13:27:52;19.60;90.70
28863;DHT22;15994;51.796;13.006;2023-05-01T13:30:20;19.80;90.50
28863;DHT22;15994;51.796;13.006;2023-05-01T13:32:47;20.00;90.30
28863;DHT22;15994;51.796;13.006;2023-05-01T13:35:21;20.10;91.10
28863;DHT22;15994;51.796;13.006;2023-05-01T13:37:50;20.10;90.40
28863;DHT22;15994;51.796;13.006;2023-05-01T13:40:17;20.10;89.30
28863;DHT22;15994;51.796;13.006;2023-05-01T13:42:45;20.10;87.00
28863;DHT22;15994;51.796;13.006;2023-05-01T13:45:18;20.10;88.80
28863;DHT22;15994;51.796;13.006;2023-05-01T13:47:48;20.10;88.30
28863;DHT22;15994;51.796;13.006;2023-05-01T13:50:15;20.20;85.30
28863;DHT22;15994;51.796;13.006;2023-05-01T13:52:44;20.10;85.40
28863;DHT22;15994;51.796;13.006;2023-05-01T13:55:11;20.20;85.10
28863;DHT22;15994;51.796;13.006;2023-05-01T13:57:39;20.20;85.80
28863;DHT22;15994;51.796;13.006;2023-05-01T14:00:10;20.30;89.90
28863;DHT22;15994;51.796;13.006;2023-05-01T14:02:43;20.60;90.50
28863;DHT22;15994;51.796;13.006;2023-05-01T14:05:11;20.50;88.80
28863;DHT22;15994;51.796;13.006;2023-05-01T14:07:43;20.60;87.20
28863;DHT22;15994;51.796;13.006;2023-05-01T14:10:11;20.80;90.10
28863;DHT22;15994;51.796;13.006;2023-05-01T14:12:38;20.80;88.80
28863;DHT22;15994;51.796;13.006;2023-05-01T14:15:08;21.00;91.30
28863;DHT22;15994;51.796;13.006;2023-05-01T14:17:36;21.20;88.40
28863;DHT22;15994;51.796;13.006;2023-05-01T14:20:04;20.80;87.60
28863;DHT22;15994;51.796;13.006;2023-05-01T14:22:40;20.90;91.40
28863;DHT22;15994;51.796;13.006;2023-05-01T14:25:21;21.00;91.20
28863;DHT22;15994;51.796;13.006;2023-05-01T14:27:52;21.00;90.50
28863;DHT22;15994;51.796;13.006;2023-05-01T14:32:59;21.10;88.20
28863;DHT22;15994;51.796;13.006;2023-05-01T14:35:26;21.00;88.50
28863;DHT22;15994;51.796;13.006;2023-05-01T14:37:52;21.00;91.00
28863;DHT22;15994;51.796;13.006;2023-05-01T14:40:25;21.00;84.00
28863;DHT22;15994;51.796;13.006;2023-05-01T14:42:53;20.60;83.80
28863;DHT22;15994;51.796;13.006;2023-05-01T14:45:20;20.80;84.70
28863;DHT22;15994;51.796;13.006;2023-05-01T14:47:48;20.80;88.70
28863;DHT22;15994;51.796;13.006;2023-05-01T14:50:19;20.90;87.60
28863;DHT22;15994;51.796;13.006;2023-05-01T14:52:46;21.20;86.50
28863;DHT22;15994;51.796;13.006;2023-05-01T14:55:15;21.30;87.10
28863;DHT22;15994;51.796;13.006;2023-05-01T14:57:43;21.40;86.40
28863;DHT22;15994;51.796;13.006;2023-05-01T15:00:10;21.60;85.90
28863;DHT22;15994;51.796;13.006;2023-05-01T15:02:37;21.60;88.60
28863;DHT22;15994;51.796;13.006;2023-05-01T15:05:04;21.60;92.90
28863;DHT22;15994;51.796;13.006;2023-05-01T15:07:30;21.80;93.80
28863;DHT22;15994;51.796;13.006;2023-05-01T15:09:57;21.80;96.80
28863;DHT22;15994;51.796;13.006;2023-05-01T15:12:24;21.70;95.30
28863;DHT22;15994;51.796;13.006;2023-05-01T15:14:51;21.80;96.20
28863;DHT22;15994;51.796;13.006;2023-05-01T15:17:18;21.70;95.80
28863;DHT22;15994;51.796;13.006;2023-05-01T15:19:45;21.50;95.60
28863;DHT22;15994;51.796;13.006;2023-05-01T15:22:11;21.50;95.30
28863;DHT22;15994;51.796;13.006;2023-05-01T15:24:38;21.20;95.90
28863;DHT22;15994;51.796;13.006;2023-05-01T15:27:05;21.20;95.40
28863;DHT22;15994;51.796;13.006;2023-05-01T15:29:32;20.70;95.20
28863;DHT22;15994;51.796;13.006;2023-05-01T15:31:59;20.70;95.20
28863;DHT22;15994;51.796;13.006;2023-05-01T15:34:26;20.80;96.20
28863;DHT22;15994;51.796;13.006;2023-05-01T15:36:53;20.80;96.40
28863;DHT22;15994;51.796;13.006;2023-05-01T15:39:20;20.80;95.80
28863;DHT22;15994;51.796;13.006;2023-05-01T15:41:46;20.90;96.10
28863;DHT22;15994;51.796;13.006;2023-05-01T15:44:13;21.10;94.80
28863;DHT22;15994;51.796;13.006;2023-05-01T15:46:40;21.10;94.30
28863;DHT22;15994;51.796;13.006;2023-05-01T15:49:07;21.10;94.80
28863;DHT22;15994;51.796;13.006;2023-05-01T15:51:35;21.20;95.00
28863;DHT22;15994;51.796;13.006;2023-05-01T15:54:01;21.10;95.50
28863;DHT22;15994;51.796;13.006;2023-05-01T15:56:28;21.10;94.70
28863;DHT22;15994;51.796;13.006;2023-05-01T15:58:55;21.00;95.10
28863;DHT22;15994;51.796;13.006;2023-05-01T16:01:21;21.10;94.50
28863;DHT22;15994;51.796;13.006;2023-05-01T16:03:48;21.10;94.90
28863;DHT22;15994;51.796;13.006;2023-05-01T16:06:15;21.20;94.40